ADDS METAR Data INFO
IDs: Format: Raw Decoded Include TAF

Data at: 1640 UTC 22 Jul 2017

KCOM 221635Z AUTO 21010G15KT 10SM CLR 34/18 A3001 RMK AO2 T03400180
KCOM 221615Z AUTO 20008KT 10SM CLR 33/19 A3001 RMK AO2 T03320185
KCOM 221555Z AUTO 22006G14KT 10SM CLR 33/19 A3001 RMK AO2 T03250188
KCOM 221535Z AUTO 20011KT 10SM CLR 32/19 A3002 RMK AO2 T03170189
KCOM 221515Z AUTO 22011KT 10SM CLR 31/19 A3003 RMK AO2 T03110191
KCOM 221455Z AUTO 21006KT 10SM CLR 30/19 A3003 RMK AO2 T03040193
KCOM 221435Z AUTO 22008KT 10SM CLR 29/20 A3003 RMK AO2 T02930195
KCOM 221415Z AUTO 21006KT 10SM CLR 28/20 A3003 RMK AO2 T02830195
KCOM 221355Z AUTO 20007KT 10SM CLR 28/19 A3003 RMK AO2 T02780193
KCOM 221335Z AUTO 19005KT 10SM CLR 27/19 A3002 RMK AO2 T02690192
KCOM 221315Z AUTO 19004KT 10SM CLR 26/19 A3001 RMK AO2 T02620186
KCOM 221255Z AUTO 00000KT 10SM CLR 25/18 A3001 RMK AO2 T02500181
KCOM 221235Z AUTO 00000KT 10SM CLR 24/18 A3001 RMK AO2 T02410177
KCOM 221215Z AUTO 00000KT 10SM CLR 24/18 A3000 RMK AO2 T02360175
KCOM 221155Z AUTO 00000KT 10SM CLR 24/17 A3000 RMK AO2 T02350172 10271 20235
KCOM 221135Z AUTO 00000KT 10SM CLR 24/17 A2999 RMK AO2 T02380173
KCOM 221115Z AUTO 00000KT 10SM CLR 24/17 A2999 RMK AO2 T02420171
KCOM 221050Z AUTO 00000KT 10SM CLR 25/17 A2999 RMK AO2 T02500171
KCOM 221035Z AUTO 00000KT 10SM CLR 25/17 A2999 RMK AO2 T02490170
KCOM 221015Z AUTO 17003KT 10SM CLR 25/17 A2999 RMK AO2 T02510168
KCOM 220955Z AUTO 18004KT 10SM CLR 25/17 A2998 RMK AO2 T02530166
KCOM 220935Z AUTO 18005KT 10SM CLR 26/16 A2998 RMK AO2 T02550162
KCOM 220915Z AUTO 17005KT 10SM CLR 26/16 A2998 RMK AO2 T02550160
KCOM 220855Z AUTO 17005KT 10SM CLR 26/16 A2997 RMK AO2 T02560156
KCOM 220835Z AUTO 17005KT 10SM CLR 26/16 A2997 RMK AO2 T02580155
KCOM 220815Z AUTO 18005KT 10SM CLR 26/16 A2997 RMK AO2 T02610155
KCOM 220755Z AUTO 18005KT 10SM CLR 26/15 A2997 RMK AO2 T02630152
KCOM 220735Z AUTO 18005KT 10SM CLR 27/15 A2997 RMK AO2 T02660150
KCOM 220715Z AUTO 18004KT 10SM CLR 27/15 A2997 RMK AO2 T02700150
KCOM 220655Z AUTO 17004KT 10SM CLR 27/15 A2998 RMK AO2 T02710148
KCOM 220635Z AUTO 16004KT 10SM CLR 27/15 A2998 RMK AO2 T02680147
KCOM 220615Z AUTO 15003KT 10SM CLR 27/15 A2998 RMK AO2 T02700146
KCOM 220555Z AUTO 13003KT 10SM CLR 27/15 A2998 RMK AO2 T02680148 10370 20268 403820243
KCOM 220535Z AUTO 00000KT 10SM CLR 28/15 A2998 RMK AO2 T02760146
KCOM 220515Z AUTO 00000KT 10SM CLR 28/14 A2997 RMK AO2 T02810142
KCOM 220455Z AUTO 15004KT 10SM CLR 29/14 A2997 RMK AO2 T02850141
KCOM 220435Z AUTO 14005KT 10SM CLR 29/14 A2997 RMK AO2 T02890142
KCOM 220415Z AUTO 14005KT 10SM CLR 29/14 A2997 RMK AO2 T02920140
KCOM 220355Z AUTO 14005KT 10SM CLR 29/14 A2997 RMK AO2 T02920142
KCOM 220335Z AUTO 13003KT 10SM SCT095 30/15 A2997 RMK AO2 T02960145
KCOM 220315Z AUTO 14003KT 10SM BKN095 30/15 A2996 RMK AO2 T02980146
KCOM 220250Z AUTO 13003KT 10SM BKN095 31/15 A2995 RMK AO2 T03050146
KCOM 220235Z AUTO 13004KT 10SM BKN095 31/15 A2995 RMK AO2 T03050148
KCOM 220215Z AUTO 13003KT 10SM SCT090 31/15 A2994 RMK AO2 T03140147
KCOM 220155Z AUTO 13004KT 10SM SCT090 33/15 A2993 RMK AO2 T03250147
KCOM 220135Z AUTO 11006KT 10SM CLR 34/15 A2992 RMK AO2 T03350149
KCOM 220115Z AUTO 12007KT 10SM CLR 35/14 A2992 RMK AO2 T03470143
KCOM 220055Z AUTO 11008KT 10SM CLR 36/14 A2992 RMK AO2 T03560144
KCOM 220035Z AUTO 13011KT 10SM CLR 36/14 A2992 RMK AO2 T03640137
KCOM 220015Z AUTO 12010G14KT 10SM CLR 37/14 A2992 RMK AO2 T03670141
KCOM 212355Z AUTO 12009KT 10SM CLR 37/15 A2992 RMK AO2 T03690146 10382 20352
KCOM 212335Z AUTO 11011KT 10SM CLR 37/15 A2992 RMK AO2 T03700147
KCOM 212315Z AUTO 11010KT 10SM CLR 37/15 A2993 RMK AO2 T03710148
KCOM 212255Z AUTO 11012G15KT 10SM CLR 38/15 A2993 RMK AO2 T03750148
KCOM 212235Z AUTO 12014G18KT 10SM CLR 37/15 A2994 RMK AO2 T03740151
KCOM 212215Z AUTO 11007KT 10SM CLR 37/15 A2995 RMK AO2 T03670150
KCOM 212155Z AUTO 13008G26KT 10SM CLR 37/15 A2996 RMK AO2 T03690146
KCOM 212135Z AUTO 12011G18KT 10SM CLR 37/15 A2996 RMK AO2 T03660150
KCOM 212115Z AUTO 13011KT 10SM SCT080 38/15 A2997 RMK AO2 T03750153
KCOM 212055Z AUTO 19008G15KT 10SM SCT080 38/15 A2998 RMK AO2 T03770149
KCOM 212035Z AUTO 17004KT 10SM SCT080 SCT110 38/15 A2999 RMK AO2 T03770147
KCOM 212015Z AUTO 15007G18KT 10SM SCT080 BKN110 38/15 A2999 RMK AO2 T03760152
KCOM 211955Z AUTO 15010G14KT 140V210 10SM SCT080 SCT100 36/15 A3000 RMK AO2 T03610150
KCOM 211935Z AUTO 16009G14KT 10SM SCT075 37/15 A3001 RMK AO2 T03710150
KCOM 211915Z AUTO 16005G17KT 10SM CLR 37/16 A3002 RMK AO2 T03650155
KCOM 211855Z AUTO 15005KT 10SM CLR 37/16 A3003 RMK AO2 T03680161
KCOM 211835Z AUTO 16004KT 10SM CLR 36/16 A3003 RMK AO2 T03590161
KCOM 211815Z AUTO 14008KT 10SM CLR 35/17 A3004 RMK AO2 T03540165
KCOM 211750Z AUTO 17005KT 10SM CLR 35/17 A3006 RMK AO2 T03490168 10350 20243
KCOM 211735Z AUTO 00000KT 10SM CLR 35/17 A3006 RMK AO2 T03450169
KCOM 211715Z AUTO 15009KT 10SM CLR 34/18 A3006 RMK AO2 T03410176
KCOM 211655Z AUTO 21006KT 10SM CLR 34/18 A3007 RMK AO2 T03400179
KCOM 211635Z AUTO 18007KT 10SM CLR 33/18 A3007 RMK AO2 T03320184
KCOM 211615Z AUTO 22004KT 10SM CLR 33/19 A3007 RMK AO2 T03250187
KCOM 211555Z AUTO 20008KT 10SM CLR 32/19 A3008 RMK AO2 T03200190
KCOM 211535Z AUTO 21007KT 10SM CLR 31/19 A3008 RMK AO2 T03100192
KCOM 211515Z AUTO 22007KT 10SM CLR 31/20 A3008 RMK AO2 T03050195
KCOM 211455Z AUTO 21009KT 10SM CLR 30/20 A3008 RMK AO2 T02960200
KCOM 211435Z AUTO 21008KT 10SM CLR 29/20 A3008 RMK AO2 T02870200
KCOM 211415Z AUTO 20007KT 10SM CLR 28/20 A3008 RMK AO2 T02810202
KCOM 211355Z AUTO 17005KT 10SM SCT120 27/20 A3008 RMK AO2 T02690200
KCOM 211335Z AUTO 19005KT 10SM CLR 27/20 A3008 RMK AO2 T02670200
KCOM 211315Z AUTO 00000KT 10SM CLR 26/20 A3008 RMK AO2 T02630197
KCOM 211255Z AUTO 00000KT 10SM CLR 26/20 A3008 RMK AO2 T02580195
KCOM 211235Z AUTO 00000KT 10SM CLR 25/19 A3007 RMK AO2 T02510192
KCOM 211215Z AUTO 20005KT 10SM CLR 25/19 A3005 RMK AO2 T02450190
KCOM 211155Z AUTO 21005KT 10SM CLR 25/19 A3005 RMK AO2 T02450187 10296 20245
KCOM 211135Z AUTO 19005KT 10SM CLR 25/19 A3004 RMK AO2 T02470186
KCOM 211115Z AUTO 21004KT 10SM CLR 25/19 A3004 RMK AO2 T02510188
KCOM 211050Z AUTO 18005KT 10SM CLR 25/19 A3004 RMK AO2 T02520185
KCOM 211035Z AUTO 19005KT 10SM CLR 26/19 A3003 RMK AO2 T02550185
KCOM 211015Z AUTO 19004KT 10SM CLR 26/18 A3003 RMK AO2 T02570184
KCOM 210955Z AUTO 18004KT 10SM CLR 26/18 A3003 RMK AO2 T02560180
KCOM 210935Z AUTO 18004KT 10SM CLR 26/18 A3003 RMK AO2 T02620180
KCOM 210915Z AUTO 18005KT 10SM CLR 27/18 A3004 RMK AO2 T02650177
KCOM 210855Z AUTO 18007KT 10SM CLR 27/17 A3004 RMK AO2 T02650174
KCOM 210835Z AUTO 17006KT 10SM CLR 27/17 A3004 RMK AO2 T02680171
KCOM 210815Z AUTO 17007KT 10SM CLR 27/17 A3004 RMK AO2 T02710170
KCOM 210755Z AUTO 17006KT 10SM CLR 27/17 A3004 RMK AO2 T02710166
KCOM 210735Z AUTO 17006KT 10SM CLR 28/17 A3004 RMK AO2 T02750165
KCOM 210715Z AUTO 17005KT 10SM CLR 28/16 A3005 RMK AO2 T02760164
KCOM 210655Z AUTO 17005KT 10SM CLR 28/16 A3005 RMK AO2 T02820163
KCOM 210635Z AUTO 17006KT 10SM CLR 29/16 A3005 RMK AO2 T02890161
KCOM 210615Z AUTO 16006KT 10SM SCT090 29/16 A3005 RMK AO2 T02930160
KCOM 210555Z AUTO 16007KT 10SM SCT090 30/16 A3005 RMK AO2 T02960160 10362 20288 403740238
KCOM 210535Z AUTO 15007KT 10SM CLR 30/16 A3006 RMK AO2 T02950156
KCOM 210515Z AUTO 15006KT 10SM CLR 29/16 A3005 RMK AO2 T02930155
KCOM 210455Z AUTO 14006KT 10SM CLR 29/16 A3005 RMK AO2 T02920155